createdAt,value
2023-02-19T07:57:58.898Z,13.63
2023-02-19T08:00:25.742Z,14.82
2023-02-19T08:02:52.579Z,14.73
2023-02-19T08:05:19.354Z,15.55
2023-02-19T08:07:47.471Z,15.02
2023-02-19T08:10:14.271Z,14.45
2023-02-19T08:12:41.157Z,14.35
2023-02-19T08:15:08.768Z,14.65
2023-02-19T08:17:35.507Z,14.77
2023-02-19T08:20:02.389Z,14.27
2023-02-19T08:22:29.136Z,14.93
2023-02-19T08:24:57.224Z,14.95
2023-02-19T08:27:23.900Z,15.25
2023-02-19T08:29:50.597Z,14.93
2023-02-19T08:32:17.302Z,14.75
2023-02-19T08:34:43.949Z,14.00
2023-02-19T08:37:10.665Z,14.05
2023-02-19T08:39:37.336Z,13.98
2023-02-19T08:42:05.714Z,13.77
2023-02-19T08:44:32.694Z,14.45
2023-02-19T08:46:59.411Z,14.57
2023-02-19T08:49:26.441Z,14.93
2023-02-19T08:51:53.169Z,13.82
2023-02-19T08:54:19.909Z,14.65
2023-02-19T08:56:46.627Z,14.10
2023-02-19T08:59:14.845Z,14.88
2023-02-19T09:01:41.651Z,14.55
2023-02-19T09:04:11.915Z,14.65
2023-02-19T09:06:40.137Z,14.00
2023-02-19T09:09:06.915Z,13.60
2023-02-19T09:11:33.579Z,13.73
2023-02-19T09:14:00.304Z,14.35
2023-02-19T09:16:28.525Z,14.23
2023-02-19T09:18:55.204Z,13.90
2023-02-19T09:21:21.945Z,14.95
2023-02-19T09:23:48.694Z,14.52
2023-02-19T09:26:15.371Z,14.00
2023-02-19T09:28:42.180Z,14.57
2023-02-19T09:31:10.992Z,14.65
2023-02-19T09:33:42.595Z,13.57
2023-02-19T09:36:09.632Z,14.30
2023-02-19T09:38:36.288Z,13.43
2023-02-19T09:41:07.887Z,12.35
2023-02-19T09:43:35.420Z,12.95
2023-02-19T09:46:05.034Z,12.98
2023-02-19T09:48:32.431Z,13.70
2023-02-19T09:51:02.031Z,13.50
2023-02-19T09:53:35.879Z,13.23
2023-02-19T09:56:02.569Z,12.30
2023-02-19T09:58:33.264Z,12.68
2023-02-19T10:01:03.072Z,12.90
2023-02-19T10:03:31.256Z,13.13
2023-02-19T10:06:02.322Z,12.15
2023-02-19T10:08:32.735Z,12.70
2023-02-19T10:11:00.638Z,12.55
2023-02-19T10:13:31.829Z,13.30
2023-02-19T10:16:01.843Z,12.93
2023-02-19T10:18:35.475Z,13.63
2023-02-19T10:21:03.729Z,12.68
2023-02-19T10:23:31.372Z,12.52
2023-02-19T10:26:00.078Z,11.90
2023-02-19T10:28:29.885Z,12.10
2023-02-19T10:31:00.170Z,11.80
2023-02-19T10:33:27.212Z,9.30
2023-02-19T10:35:56.427Z,9.68
2023-02-19T10:38:28.174Z,10.27
2023-02-19T10:41:00.899Z,10.52
2023-02-19T10:43:30.225Z,10.38
2023-02-19T10:45:58.542Z,10.02
2023-02-19T10:48:29.446Z,10.32
2023-02-19T10:51:01.758Z,10.50
2023-02-19T10:53:41.910Z,9.43
2023-02-19T10:56:11.681Z,9.10
2023-02-19T10:58:39.531Z,9.20
2023-02-19T11:01:16.048Z,9.85
2023-02-19T11:03:43.209Z,9.48
2023-02-19T11:06:13.138Z,9.27
2023-02-19T11:09:01.970Z,9.30
2023-02-19T11:11:32.617Z,9.82
2023-02-19T11:14:03.444Z,10.32
2023-02-19T11:16:43.375Z,9.25
2023-02-19T11:19:23.640Z,9.18
2023-02-19T11:21:50.661Z,8.85
2023-02-19T11:24:26.035Z,8.82
2023-02-19T11:31:48.236Z,8.93
2023-02-19T11:34:29.513Z,10.15
2023-02-19T11:37:13.365Z,9.95
2023-02-19T11:39:43.818Z,9.75
2023-02-19T11:42:29.863Z,10.63
2023-02-19T11:45:15.725Z,10.70
2023-02-19T11:48:09.157Z,10.77
2023-02-19T11:50:50.132Z,10.27
2023-02-19T11:53:21.623Z,10.27
2023-02-19T11:55:59.258Z,11.05
2023-02-19T11:58:59.498Z,9.80
2023-02-19T12:01:57.068Z,10.40
2023-02-19T12:05:05.160Z,11.20
2023-02-19T12:07:55.055Z,11.45
2023-02-19T12:10:29.587Z,10.95
2023-02-19T12:13:06.958Z,10.98
2023-02-19T12:15:49.205Z,11.47
2023-02-19T12:18:43.389Z,11.90
2023-02-19T12:21:24.260Z,11.50
2023-02-19T12:24:16.747Z,11.18
2023-02-19T12:26:58.773Z,11.02
2023-02-19T12:29:44.387Z,10.27
2023-02-19T12:32:22.387Z,10.40
2023-02-19T12:35:34.694Z,10.00
2023-02-19T12:38:14.190Z,10.20
2023-02-19T12:40:50.751Z,10.38
2023-02-19T12:43:20.325Z,10.38
2023-02-19T12:45:55.272Z,10.73
2023-02-19T12:48:29.552Z,10.88
2023-02-19T12:50:59.956Z,10.35
2023-02-19T12:53:47.170Z,10.80
2023-02-19T12:56:18.877Z,10.37
2023-02-19T12:58:49.133Z,10.38
2023-02-19T13:01:22.275Z,10.23
2023-02-19T13:03:54.027Z,10.20
2023-02-19T13:06:36.329Z,10.10
2023-02-19T13:09:11.642Z,9.80
2023-02-19T13:11:42.641Z,9.50
2023-02-19T13:14:16.885Z,9.98
2023-02-19T13:16:48.844Z,10.07
2023-02-19T13:19:15.511Z,9.82
2023-02-19T13:21:46.981Z,10.10
2023-02-19T13:24:20.895Z,10.60
2023-02-19T13:27:12.018Z,9.93
2023-02-19T13:29:54.313Z,9.45
2023-02-19T13:32:49.186Z,10.10
2023-02-19T13:35:25.280Z,9.90
2023-02-19T13:37:53.446Z,9.77
2023-02-19T13:40:30.187Z,9.50
2023-02-19T13:42:59.358Z,9.88
2023-02-19T13:45:33.825Z,9.02
2023-02-19T13:48:14.987Z,9.20
2023-02-19T13:50:42.095Z,9.27
2023-02-19T13:53:41.893Z,9.25
2023-02-19T13:56:36.829Z,8.93
2023-02-19T13:59:21.658Z,9.40
2023-02-19T14:02:14.022Z,9.30
2023-02-19T14:04:45.356Z,9.27
2023-02-19T14:07:50.917Z,9.73
2023-02-19T14:10:57.002Z,9.23
2023-02-19T14:13:58.313Z,9.05
2023-02-19T14:16:48.176Z,9.45
2023-02-19T14:19:16.176Z,8.90
2023-02-19T14:21:44.172Z,9.40
2023-02-19T14:24:11.836Z,9.43
2023-02-19T14:26:39.654Z,8.95
2023-02-19T14:29:13.766Z,9.05
2023-02-19T14:31:44.504Z,9.35
2023-02-19T14:34:18.016Z,9.50
2023-02-19T14:36:49.147Z,9.43
2023-02-19T14:39:19.593Z,9.60
2023-02-19T14:41:50.314Z,9.20
2023-02-19T14:44:20.973Z,9.45
2023-02-19T14:46:57.039Z,9.25
2023-02-19T14:49:29.702Z,9.65
2023-02-19T14:52:01.058Z,8.90
2023-02-19T14:54:38.085Z,9.43
2023-02-19T14:57:10.526Z,9.10
2023-02-19T14:59:37.227Z,9.20
2023-02-19T15:02:15.007Z,9.40
2023-02-19T15:04:42.087Z,9.55
2023-02-19T15:07:15.257Z,9.40
2023-02-19T15:09:45.804Z,9.38
2023-02-19T15:12:16.856Z,8.97
2023-02-19T15:14:44.676Z,9.00
2023-02-19T15:17:15.959Z,8.93
2023-02-19T15:19:44.175Z,8.85
2023-02-19T15:22:19.010Z,9.02
2023-02-19T15:24:47.613Z,8.65
2023-02-19T15:27:18.264Z,9.02
2023-02-19T15:29:46.420Z,8.80
2023-02-19T15:32:17.784Z,9.07
2023-02-19T15:34:53.491Z,8.80
2023-02-19T15:37:22.904Z,8.20
2023-02-19T15:39:51.271Z,8.30
2023-02-19T15:42:21.170Z,8.65
2023-02-19T15:44:55.799Z,8.10
2023-02-19T15:47:29.683Z,8.30
2023-02-19T15:50:03.553Z,8.55
2023-02-19T15:52:42.065Z,8.48
2023-02-19T15:55:28.879Z,8.43
2023-02-19T15:58:02.717Z,8.20
2023-02-19T16:00:35.872Z,9.30
2023-02-19T16:03:03.561Z,9.05
2023-02-19T16:05:30.999Z,8.40
2023-02-19T16:08:18.635Z,8.30
2023-02-19T16:10:56.264Z,9.30
2023-02-19T16:13:25.301Z,9.60
2023-02-19T16:15:59.766Z,9.40
2023-02-19T16:18:26.752Z,9.93
2023-02-19T16:20:53.573Z,10.48
2023-02-19T16:23:24.910Z,10.02
2023-02-19T16:25:58.802Z,10.40
2023-02-19T16:28:28.083Z,10.52
2023-02-19T16:30:59.191Z,10.50
2023-02-19T16:33:35.211Z,10.32
2023-02-19T16:36:36.027Z,10.60
2023-02-19T16:39:21.062Z,10.70
2023-02-19T16:42:13.060Z,10.68
2023-02-19T16:44:40.085Z,10.20
2023-02-19T16:47:13.988Z,10.40
2023-02-19T16:49:40.862Z,10.57
2023-02-19T16:52:14.584Z,10.45
2023-02-19T16:54:43.175Z,10.60
2023-02-19T16:57:09.971Z,11.20
2023-02-19T16:59:38.530Z,10.60
2023-02-19T17:02:42.913Z,11.52
2023-02-19T17:10:29.364Z,12.18
2023-02-19T17:12:56.144Z,12.87
2023-02-19T17:15:23.204Z,12.63
2023-02-19T17:17:49.924Z,13.55
2023-02-19T17:20:25.021Z,13.90
2023-02-19T17:22:51.806Z,13.70
2023-02-19T17:25:18.545Z,13.80
2023-02-19T17:27:46.598Z,15.00
2023-02-19T17:30:17.704Z,14.45
2023-02-19T17:32:44.353Z,14.70
2023-02-19T17:35:11.296Z,14.77
2023-02-19T17:37:37.979Z,15.60
2023-02-19T17:40:15.190Z,14.80
2023-02-19T17:42:43.445Z,15.05
2023-02-19T17:45:11.607Z,15.63
2023-02-19T17:47:38.289Z,15.02
2023-02-19T17:50:05.868Z,15.55
2023-02-19T17:52:32.608Z,14.98
2023-02-19T17:54:59.358Z,15.60
2023-02-19T17:57:26.061Z,15.55
2023-02-19T17:59:52.791Z,15.35
2023-02-19T18:02:20.877Z,15.77
2023-02-19T18:04:47.742Z,15.65
2023-02-19T18:07:15.508Z,15.88
2023-02-19T18:09:42.352Z,15.20
2023-02-19T18:12:09.403Z,15.60
2023-02-19T18:14:36.107Z,15.90
2023-02-19T18:17:03.048Z,15.65
2023-02-19T18:19:31.184Z,16.23
2023-02-19T18:21:57.863Z,15.55
2023-02-19T18:24:24.562Z,16.13
2023-02-19T18:26:51.222Z,15.43
2023-02-19T18:29:56.475Z,15.48
2023-02-19T18:32:24.793Z,15.50
2023-02-19T18:34:54.313Z,16.10
2023-02-19T18:37:24.232Z,15.55
2023-02-19T18:39:51.133Z,15.35
2023-02-19T18:42:18.152Z,15.85
2023-02-19T18:44:47.713Z,15.25
2023-02-19T18:47:15.128Z,15.70
2023-02-19T18:49:45.452Z,15.43
2023-02-19T18:52:13.770Z,15.38
2023-02-19T18:54:40.447Z,15.13
2023-02-19T18:57:07.149Z,15.02
2023-02-19T18:59:33.862Z,15.20
2023-02-19T19:02:00.604Z,15.60
2023-02-19T19:04:27.428Z,15.18
2023-02-19T19:06:54.326Z,15.15
2023-02-19T19:09:22.668Z,14.77
2023-02-19T19:11:49.311Z,14.77
2023-02-19T19:14:16.094Z,15.20
2023-02-19T19:16:43.068Z,15.20
2023-02-19T19:19:09.863Z,15.35
2023-02-19T19:21:36.701Z,16.00
2023-02-19T19:24:03.739Z,15.90
2023-02-19T19:26:32.264Z,15.45
2023-02-19T19:28:58.977Z,15.48
2023-02-19T19:31:26.310Z,15.25
2023-02-19T19:33:53.071Z,15.00
2023-02-19T19:36:21.962Z,15.13
2023-02-19T19:38:48.897Z,15.18
2023-02-19T19:41:16.568Z,15.10
2023-02-19T19:43:45.315Z,15.13
2023-02-19T19:46:12.599Z,14.57
2023-02-19T19:48:39.833Z,15.25
2023-02-19T19:51:06.577Z,14.93
2023-02-19T19:53:33.642Z,15.07
2023-02-19T19:56:03.561Z,14.95
2023-02-19T19:58:30.256Z,15.13
2023-02-19T20:00:58.369Z,15.05
2023-02-19T20:03:25.054Z,15.18
2023-02-19T20:05:51.843Z,14.63
2023-02-19T20:08:18.924Z,15.00
2023-02-19T20:10:45.774Z,15.43
2023-02-19T20:13:15.977Z,14.88
2023-02-19T20:15:42.680Z,14.57
2023-02-19T20:18:11.054Z,14.95
2023-02-19T20:20:37.844Z,15.40
2023-02-19T20:23:04.543Z,14.48
2023-02-19T20:25:31.239Z,14.43
2023-02-19T20:27:57.955Z,14.20
2023-02-19T20:30:25.065Z,14.35
2023-02-19T20:32:52.046Z,14.73
2023-02-19T20:35:21.003Z,14.90
2023-02-19T20:37:47.749Z,14.82
2023-02-19T20:40:37.277Z,14.88
2023-02-19T20:43:08.482Z,14.90
2023-02-19T20:46:16.304Z,14.68
2023-02-19T20:48:55.370Z,14.80
2023-02-19T20:55:49.649Z,14.52
2023-02-19T21:02:18.324Z,14.75
2023-02-19T21:04:59.503Z,18.75
2023-02-19T21:07:26.885Z,19.15
2023-02-19T21:09:53.871Z,19.58
2023-02-19T21:12:21.634Z,18.75
2023-02-19T21:14:48.744Z,18.97
2023-02-19T21:17:15.494Z,18.90
2023-02-19T21:19:42.375Z,18.73
2023-02-19T21:22:10.452Z,18.67
2023-02-19T21:24:37.133Z,18.75
2023-02-19T21:27:04.459Z,18.07
2023-02-19T21:29:31.178Z,18.40
2023-02-19T21:31:58.263Z,18.17
2023-02-19T21:34:28.390Z,17.42
2023-02-19T21:36:56.077Z,17.70
2023-02-19T21:39:25.577Z,17.17
2023-02-19T21:41:52.435Z,17.50
2023-02-19T21:44:19.810Z,17.48
2023-02-19T21:46:46.599Z,17.90
2023-02-19T21:49:13.379Z,17.08
2023-02-19T21:51:41.843Z,17.60
2023-02-19T21:54:13.765Z,17.42
2023-02-19T21:56:42.274Z,16.35
2023-02-19T21:59:08.977Z,17.20
2023-02-19T22:01:37.760Z,16.55
2023-02-19T22:04:05.044Z,15.93
2023-02-19T22:06:36.859Z,16.57
2023-02-19T22:09:04.057Z,15.75
2023-02-19T22:11:31.878Z,17.23
2023-02-19T22:14:00.493Z,16.23
2023-02-19T22:16:29.044Z,16.77
2023-02-19T22:18:57.890Z,16.52
2023-02-19T22:21:27.861Z,16.50
2023-02-19T22:25:03.114Z,16.97
2023-02-19T22:27:59.418Z,19.08
2023-02-19T22:37:10.731Z,20.50
2023-02-19T22:40:06.781Z,19.92
2023-02-19T22:42:38.866Z,20.70
2023-02-19T22:45:09.621Z,21.43
2023-02-19T22:48:28.371Z,21.77
2023-02-19T22:50:45.657Z,23.83
2023-02-19T22:53:34.798Z,25.08
2023-02-19T22:56:32.589Z,25.52
2023-02-19T23:02:44.335Z,24.25
2023-02-19T23:05:17.203Z,24.40
2023-02-19T23:07:49.086Z,23.70
2023-02-19T23:10:23.099Z,22.90
2023-02-19T23:12:50.113Z,23.77
2023-02-19T23:15:16.992Z,24.20
2023-02-19T23:17:47.769Z,25.17
2023-02-19T23:20:14.570Z,24.92
2023-02-19T23:22:41.487Z,25.33
2023-02-19T23:25:08.409Z,24.47
2023-02-19T23:27:35.119Z,26.10
2023-02-19T23:30:01.845Z,26.42
2023-02-19T23:32:28.548Z,27.47
2023-02-19T23:34:56.655Z,26.38
2023-02-19T23:37:23.448Z,25.25
2023-02-19T23:39:50.189Z,26.02
2023-02-19T23:42:17.153Z,26.43
2023-02-19T23:44:46.773Z,25.93
2023-02-19T23:47:13.730Z,27.52
2023-02-19T23:49:40.648Z,27.88
2023-02-19T23:52:08.756Z,27.45
2023-02-19T23:54:35.425Z,27.42
2023-02-19T23:57:02.189Z,27.42
2023-02-19T23:59:28.887Z,26.85
